sensor_id;sensor_type;location;lat;lon;timestamp;pressure;altitude;pressure_sealevel;temperature;humidity
53889;BME280;41337;51.400;-2.342;2022-07-22T00:01:03;101594.44;;;19.69;100.00
53889;BME280;41337;51.400;-2.342;2022-07-22T00:06:04;101594.31;;;19.75;100.00
53889;BME280;41337;51.400;-2.342;2022-07-22T00:11:09;101591.66;;;19.75;100.00
53889;BME280;41337;51.400;-2.342;2022-07-22T00:16:11;101593.34;;;19.79;100.00
53889;BME280;41337;51.400;-2.342;2022-07-22T00:21:11;101602.97;;;19.83;100.00
53889;BME280;41337;51.400;-2.342;2022-07-22T00:26:13;101602.97;;;19.83;100.00
53889;BME280;41337;51.400;-2.342;2022-07-22T00:31:14;101601.31;;;19.77;100.00
53889;BME280;41337;51.400;-2.342;2022-07-22T00:36:14;101600.41;;;19.78;100.00
53889;BME280;41337;51.400;-2.342;2022-07-22T00:41:15;101600.56;;;19.71;100.00
53889;BME280;41337;51.400;-2.342;2022-07-22T00:46:16;101603.13;;;19.74;100.00
53889;BME280;41337;51.400;-2.342;2022-07-22T00:51:22;101604.03;;;19.73;100.00
53889;BME280;41337;51.400;-2.342;2022-07-22T00:56:24;101603.28;;;19.68;100.00
53889;BME280;41337;51.400;-2.342;2022-07-22T01:01:25;101608.63;;;19.65;100.00
53889;BME280;41337;51.400;-2.342;2022-07-22T01:06:30;101604.63;;;19.47;100.00
53889;BME280;41337;51.400;-2.342;2022-07-22T01:11:32;101608.31;;;19.39;100.00
53889;BME280;41337;51.400;-2.342;2022-07-22T01:16:32;101616.16;;;19.44;100.00
53889;BME280;41337;51.400;-2.342;2022-07-22T01:21:33;101611.28;;;19.24;100.00
53889;BME280;41337;51.400;-2.342;2022-07-22T01:26:34;101606.06;;;19.22;100.00
53889;BME280;41337;51.400;-2.342;2022-07-22T01:31:35;101601.72;;;19.18;100.00
53889;BME280;41337;51.400;-2.342;2022-07-22T01:36:36;101581.56;;;19.14;100.00
53889;BME280;41337;51.400;-2.342;2022-07-22T01:41:37;101583.41;;;19.09;100.00
53889;BME280;41337;51.400;-2.342;2022-07-22T01:46:44;101580.22;;;18.95;100.00
53889;BME280;41337;51.400;-2.342;2022-07-22T01:51:45;101578.47;;;18.94;100.00
53889;BME280;41337;51.400;-2.342;2022-07-22T01:56:46;101587.22;;;18.96;100.00
53889;BME280;41337;51.400;-2.342;2022-07-22T02:01:46;101592.59;;;18.89;100.00
53889;BME280;41337;51.400;-2.342;2022-07-22T02:06:47;101597.16;;;18.80;100.00
53889;BME280;41337;51.400;-2.342;2022-07-22T02:11:48;101598.88;;;18.82;100.00
53889;BME280;41337;51.400;-2.342;2022-07-22T02:16:53;101591.88;;;18.80;100.00
53889;BME280;41337;51.400;-2.342;2022-07-22T02:21:54;101594.69;;;18.74;100.00
53889;BME280;41337;51.400;-2.342;2022-07-22T02:26:55;101584.03;;;18.78;100.00
53889;BME280;41337;51.400;-2.342;2022-07-22T02:31:56;101595.47;;;18.77;100.00
53889;BME280;41337;51.400;-2.342;2022-07-22T02:36:57;101606.94;;;18.76;100.00
53889;BME280;41337;51.400;-2.342;2022-07-22T02:41:58;101594.53;;;18.80;100.00
53889;BME280;41337;51.400;-2.342;2022-07-22T02:46:58;101583.75;;;18.94;100.00
53889;BME280;41337;51.400;-2.342;2022-07-22T02:51:59;101567.31;;;18.78;100.00
53889;BME280;41337;51.400;-2.342;2022-07-22T02:57:00;101564.41;;;18.93;100.00
53889;BME280;41337;51.400;-2.342;2022-07-22T03:02:05;101570.97;;;18.70;100.00
53889;BME280;41337;51.400;-2.342;2022-07-22T03:07:06;101561.38;;;18.65;100.00
53889;BME280;41337;51.400;-2.342;2022-07-22T03:12:07;101550.97;;;18.59;100.00
53889;BME280;41337;51.400;-2.342;2022-07-22T03:17:08;101546.63;;;18.55;100.00
53889;BME280;41337;51.400;-2.342;2022-07-22T03:22:09;101530.84;;;18.51;100.00
53889;BME280;41337;51.400;-2.342;2022-07-22T03:27:10;101531.84;;;18.47;100.00
53889;BME280;41337;51.400;-2.342;2022-07-22T03:32:11;101524.91;;;18.40;100.00
53889;BME280;41337;51.400;-2.342;2022-07-22T03:37:18;101516.94;;;18.43;100.00
53889;BME280;41337;51.400;-2.342;2022-07-22T03:42:19;101518.91;;;18.32;100.00
53889;BME280;41337;51.400;-2.342;2022-07-22T03:47:20;101520.78;;;18.27;100.00
53889;BME280;41337;51.400;-2.342;2022-07-22T03:52:29;101511.25;;;18.20;100.00
53889;BME280;41337;51.400;-2.342;2022-07-22T03:57:30;101510.41;;;18.16;100.00
53889;BME280;41337;51.400;-2.342;2022-07-22T04:02:30;101514.78;;;18.17;100.00
53889;BME280;41337;51.400;-2.342;2022-07-22T04:07:32;101515.59;;;18.22;100.00
53889;BME280;41337;51.400;-2.342;2022-07-22T04:12:37;101508.59;;;18.21;100.00
53889;BME280;41337;51.400;-2.342;2022-07-22T04:17:39;101506.03;;;18.16;100.00
53889;BME280;41337;51.400;-2.342;2022-07-22T04:22:39;101507.69;;;18.21;100.00
53889;BME280;41337;51.400;-2.342;2022-07-22T04:27:41;101496.28;;;18.20;100.00
53889;BME280;41337;51.400;-2.342;2022-07-22T04:32:41;101497.19;;;18.17;100.00
53889;BME280;41337;51.400;-2.342;2022-07-22T04:37:43;101496.25;;;18.22;100.00
53889;BME280;41337;51.400;-2.342;2022-07-22T04:42:50;101499.81;;;18.19;100.00
53889;BME280;41337;51.400;-2.342;2022-07-22T04:47:50;101493.59;;;18.23;100.00
53889;BME280;41337;51.400;-2.342;2022-07-22T04:52:51;101495.19;;;18.32;100.00
53889;BME280;41337;51.400;-2.342;2022-07-22T04:57:52;101490.63;;;18.40;100.00
53889;BME280;41337;51.400;-2.342;2022-07-22T05:02:59;101495.69;;;18.51;100.00
53889;BME280;41337;51.400;-2.342;2022-07-22T05:08:00;101510.47;;;18.60;100.00
53889;BME280;41337;51.400;-2.342;2022-07-22T05:13:01;101519.22;;;18.62;100.00
53889;BME280;41337;51.400;-2.342;2022-07-22T05:18:01;101521.97;;;18.57;100.00
53889;BME280;41337;51.400;-2.342;2022-07-22T05:23:03;101528.94;;;18.60;100.00
53889;BME280;41337;51.400;-2.342;2022-07-22T05:28:13;101533.50;;;18.51;100.00
53889;BME280;41337;51.400;-2.342;2022-07-22T05:33:17;101541.53;;;18.45;100.00
53889;BME280;41337;51.400;-2.342;2022-07-22T05:38:18;101547.56;;;18.52;100.00
53889;BME280;41337;51.400;-2.342;2022-07-22T05:43:19;101541.28;;;18.59;100.00
53889;BME280;41337;51.400;-2.342;2022-07-22T05:48:20;101538.75;;;18.53;100.00
53889;BME280;41337;51.400;-2.342;2022-07-22T05:53:21;101544.00;;;18.55;100.00
53889;BME280;41337;51.400;-2.342;2022-07-22T05:58:22;101545.84;;;18.49;100.00
53889;BME280;41337;51.400;-2.342;2022-07-22T06:03:22;101550.09;;;18.58;100.00
53889;BME280;41337;51.400;-2.342;2022-07-22T06:08:23;101538.59;;;18.61;100.00
53889;BME280;41337;51.400;-2.342;2022-07-22T06:13:31;101545.28;;;18.79;100.00
53889;BME280;41337;51.400;-2.342;2022-07-22T06:18:32;101543.09;;;19.01;100.00
53889;BME280;41337;51.400;-2.342;2022-07-22T06:23:33;101540.03;;;19.21;100.00
53889;BME280;41337;51.400;-2.342;2022-07-22T06:28:34;101546.75;;;19.36;100.00
53889;BME280;41337;51.400;-2.342;2022-07-22T06:33:35;101549.03;;;19.51;100.00
53889;BME280;41337;51.400;-2.342;2022-07-22T06:38:40;101541.63;;;19.67;100.00
53889;BME280;41337;51.400;-2.342;2022-07-22T06:43:41;101542.47;;;19.68;100.00
53889;BME280;41337;51.400;-2.342;2022-07-22T06:48:42;101549.88;;;19.52;100.00
53889;BME280;41337;51.400;-2.342;2022-07-22T06:53:43;101544.50;;;19.56;100.00
53889;BME280;41337;51.400;-2.342;2022-07-22T06:58:43;101544.66;;;19.50;100.00
53889;BME280;41337;51.400;-2.342;2022-07-22T07:03:44;101549.06;;;19.50;100.00
53889;BME280;41337;51.400;-2.342;2022-07-22T07:08:45;101542.91;;;19.49;100.00
53889;BME280;41337;51.400;-2.342;2022-07-22T07:13:47;101531.53;;;19.47;100.00
53889;BME280;41337;51.400;-2.342;2022-07-22T07:18:51;101541.25;;;19.43;100.00
53889;BME280;41337;51.400;-2.342;2022-07-22T07:23:52;101545.69;;;19.43;100.00
53889;BME280;41337;51.400;-2.342;2022-07-22T07:28:53;101546.44;;;19.48;100.00
53889;BME280;41337;51.400;-2.342;2022-07-22T07:33:53;101548.69;;;19.67;100.00
53889;BME280;41337;51.400;-2.342;2022-07-22T07:38:54;101539.00;;;19.66;100.00
53889;BME280;41337;51.400;-2.342;2022-07-22T07:43:55;101551.50;;;19.59;100.00
53889;BME280;41337;51.400;-2.342;2022-07-22T07:48:56;101544.47;;;19.58;100.00
53889;BME280;41337;51.400;-2.342;2022-07-22T07:53:58;101545.25;;;19.61;100.00
53889;BME280;41337;51.400;-2.342;2022-07-22T07:59:02;101543.66;;;19.54;100.00
53889;BME280;41337;51.400;-2.342;2022-07-22T08:04:03;101541.56;;;19.69;100.00
53889;BME280;41337;51.400;-2.342;2022-07-22T08:09:04;101536.94;;;19.80;100.00
53889;BME280;41337;51.400;-2.342;2022-07-22T08:14:05;101537.75;;;19.82;100.00
53889;BME280;41337;51.400;-2.342;2022-07-22T08:19:06;101533.25;;;19.86;100.00
53889;BME280;41337;51.400;-2.342;2022-07-22T08:24:08;101539.78;;;20.07;100.00
53889;BME280;41337;51.400;-2.342;2022-07-22T08:29:15;101542.72;;;19.96;100.00
53889;BME280;41337;51.400;-2.342;2022-07-22T08:34:16;101538.63;;;20.17;100.00
53889;BME280;41337;51.400;-2.342;2022-07-22T08:39:17;101545.22;;;20.33;100.00
53889;BME280;41337;51.400;-2.342;2022-07-22T08:44:18;101539.19;;;20.28;100.00
53889;BME280;41337;51.400;-2.342;2022-07-22T08:49:24;101542.75;;;20.29;100.00
53889;BME280;41337;51.400;-2.342;2022-07-22T08:54:24;101531.75;;;20.43;100.00
53889;BME280;41337;51.400;-2.342;2022-07-22T08:59:25;101531.84;;;20.72;100.00
53889;BME280;41337;51.400;-2.342;2022-07-22T09:04:26;101535.78;;;21.19;100.00
53889;BME280;41337;51.400;-2.342;2022-07-22T09:09:34;101529.06;;;21.65;100.00
53889;BME280;41337;51.400;-2.342;2022-07-22T09:14:49;101530.53;;;22.00;100.00
53889;BME280;41337;51.400;-2.342;2022-07-22T09:19:56;101525.16;;;22.29;100.00
53889;BME280;41337;51.400;-2.342;2022-07-22T09:25:29;101529.88;;;22.93;100.00
53889;BME280;41337;51.400;-2.342;2022-07-22T09:30:33;101529.75;;;23.66;95.31
53889;BME280;41337;51.400;-2.342;2022-07-22T09:35:34;101525.59;;;24.01;90.78
53889;BME280;41337;51.400;-2.342;2022-07-22T09:40:43;101523.00;;;24.61;83.38
53889;BME280;41337;51.400;-2.342;2022-07-22T09:45:51;101509.41;;;24.47;85.31
53889;BME280;41337;51.400;-2.342;2022-07-22T09:50:58;101522.16;;;24.19;86.46
53889;BME280;41337;51.400;-2.342;2022-07-22T09:56:01;101515.31;;;23.93;86.80
53889;BME280;41337;51.400;-2.342;2022-07-22T10:01:09;101513.97;;;23.81;90.87
53889;BME280;41337;51.400;-2.342;2022-07-22T10:06:11;101506.97;;;23.58;91.76
53889;BME280;41337;51.400;-2.342;2022-07-22T10:11:12;101513.47;;;23.51;95.69
53889;BME280;41337;51.400;-2.342;2022-07-22T10:16:19;101504.34;;;23.79;95.18
53889;BME280;41337;51.400;-2.342;2022-07-22T10:21:31;101501.41;;;24.47;88.64
53889;BME280;41337;51.400;-2.342;2022-07-22T10:26:49;101494.63;;;25.17;79.95
53889;BME280;41337;51.400;-2.342;2022-07-22T10:31:50;101496.47;;;24.79;84.65
53889;BME280;41337;51.400;-2.342;2022-07-22T10:48:03;101471.22;;;25.05;86.29
53889;BME280;41337;51.400;-2.342;2022-07-22T10:53:25;101470.59;;;25.55;78.57
53889;BME280;41337;51.400;-2.342;2022-07-22T10:58:39;101462.94;;;25.82;74.42
53889;BME280;41337;51.400;-2.342;2022-07-22T11:09:17;101465.09;;;26.11;73.33
53889;BME280;41337;51.400;-2.342;2022-07-22T11:14:33;101455.16;;;26.46;71.12
53889;BME280;41337;51.400;-2.342;2022-07-22T11:19:36;101453.94;;;26.85;65.42
53889;BME280;41337;51.400;-2.342;2022-07-22T11:24:41;101454.88;;;27.16;65.08
53889;BME280;41337;51.400;-2.342;2022-07-22T11:29:42;101458.41;;;27.33;62.06
53889;BME280;41337;51.400;-2.342;2022-07-22T11:34:49;101450.03;;;27.39;60.12
53889;BME280;41337;51.400;-2.342;2022-07-22T11:39:52;101438.47;;;27.38;61.10
53889;BME280;41337;51.400;-2.342;2022-07-22T11:45:02;101441.41;;;27.18;60.56
53889;BME280;41337;51.400;-2.342;2022-07-22T11:50:04;101432.81;;;26.97;61.45
53889;BME280;41337;51.400;-2.342;2022-07-22T11:55:18;101429.19;;;26.16;65.62
53889;BME280;41337;51.400;-2.342;2022-07-22T12:00:19;101429.69;;;25.90;69.77
53889;BME280;41337;51.400;-2.342;2022-07-22T12:05:20;101428.09;;;25.86;71.34
53889;BME280;41337;51.400;-2.342;2022-07-22T12:10:21;101425.28;;;25.71;71.04
53889;BME280;41337;51.400;-2.342;2022-07-22T12:15:22;101419.84;;;25.73;68.57
53889;BME280;41337;51.400;-2.342;2022-07-22T12:20:27;101429.06;;;25.85;69.12
53889;BME280;41337;51.400;-2.342;2022-07-22T12:25:28;101431.38;;;25.91;67.46
53889;BME280;41337;51.400;-2.342;2022-07-22T12:30:28;101424.50;;;25.52;66.53
53889;BME280;41337;51.400;-2.342;2022-07-22T12:35:29;101426.63;;;25.08;88.76
53889;BME280;41337;51.400;-2.342;2022-07-22T12:40:30;101437.63;;;24.44;100.00
53889;BME280;41337;51.400;-2.342;2022-07-22T12:45:33;101426.53;;;24.15;100.00
53889;BME280;41337;51.400;-2.342;2022-07-22T12:50:57;101414.56;;;23.84;100.00
53889;BME280;41337;51.400;-2.342;2022-07-22T12:55:58;101415.63;;;24.00;100.00
53889;BME280;41337;51.400;-2.342;2022-07-22T13:01:04;101420.50;;;24.49;100.00
53889;BME280;41337;51.400;-2.342;2022-07-22T13:06:05;101409.78;;;24.89;92.67
53889;BME280;41337;51.400;-2.342;2022-07-22T13:11:07;101425.97;;;25.03;85.37
53889;BME280;41337;51.400;-2.342;2022-07-22T13:16:08;101426.16;;;24.62;100.00
53889;BME280;41337;51.400;-2.342;2022-07-22T13:21:09;101428.13;;;23.35;100.00
53889;BME280;41337;51.400;-2.342;2022-07-22T13:26:10;101422.00;;;22.43;100.00
53889;BME280;41337;51.400;-2.342;2022-07-22T13:31:13;101432.63;;;21.93;100.00
53889;BME280;41337;51.400;-2.342;2022-07-22T13:36:17;101398.81;;;20.64;100.00
53889;BME280;41337;51.400;-2.342;2022-07-22T13:41:18;101370.44;;;19.77;100.00
53889;BME280;41337;51.400;-2.342;2022-07-22T13:46:19;101373.16;;;19.39;100.00
53889;BME280;41337;51.400;-2.342;2022-07-22T13:51:20;101347.81;;;18.96;100.00
53889;BME280;41337;51.400;-2.342;2022-07-22T13:56:20;101330.31;;;18.51;100.00
53889;BME280;41337;51.400;-2.342;2022-07-22T14:01:27;101328.75;;;18.83;100.00
53889;BME280;41337;51.400;-2.342;2022-07-22T14:06:28;101310.16;;;18.49;100.00
53889;BME280;41337;51.400;-2.342;2022-07-22T14:11:29;101292.50;;;18.52;100.00
53889;BME280;41337;51.400;-2.342;2022-07-22T14:16:30;101289.63;;;18.62;100.00
53889;BME280;41337;51.400;-2.342;2022-07-22T14:21:46;101301.50;;;18.80;100.00
53889;BME280;41337;51.400;-2.342;2022-07-22T14:26:46;101279.66;;;18.73;100.00
53889;BME280;41337;51.400;-2.342;2022-07-22T14:31:47;101309.06;;;18.97;100.00
53889;BME280;41337;51.400;-2.342;2022-07-22T14:36:48;101284.38;;;18.98;100.00
53889;BME280;41337;51.400;-2.342;2022-07-22T14:41:49;101284.31;;;19.01;100.00
53889;BME280;41337;51.400;-2.342;2022-07-22T14:46:50;101264.84;;;19.05;100.00
53889;BME280;41337;51.400;-2.342;2022-07-22T14:51:55;101253.94;;;19.17;100.00
53889;BME280;41337;51.400;-2.342;2022-07-22T14:56:56;101250.31;;;19.21;100.00
53889;BME280;41337;51.400;-2.342;2022-07-22T15:01:56;101258.69;;;19.39;100.00
53889;BME280;41337;51.400;-2.342;2022-07-22T15:06:57;101272.47;;;19.50;100.00
53889;BME280;41337;51.400;-2.342;2022-07-22T15:11:58;101261.94;;;19.49;100.00
53889;BME280;41337;51.400;-2.342;2022-07-22T15:16:59;101254.78;;;19.52;100.00
53889;BME280;41337;51.400;-2.342;2022-07-22T15:21:59;101252.41;;;19.73;100.00
53889;BME280;41337;51.400;-2.342;2022-07-22T15:27:01;101256.63;;;19.82;100.00
53889;BME280;41337;51.400;-2.342;2022-07-22T15:32:08;101249.84;;;20.03;100.00
53889;BME280;41337;51.400;-2.342;2022-07-22T15:37:09;101253.53;;;20.25;100.00
53889;BME280;41337;51.400;-2.342;2022-07-22T15:42:10;101256.31;;;20.49;100.00
53889;BME280;41337;51.400;-2.342;2022-07-22T15:47:17;101276.94;;;20.67;100.00
53889;BME280;41337;51.400;-2.342;2022-07-22T15:52:18;101289.69;;;20.83;100.00
53889;BME280;41337;51.400;-2.342;2022-07-22T15:57:19;101277.06;;;20.91;100.00
53889;BME280;41337;51.400;-2.342;2022-07-22T16:02:39;101308.38;;;21.05;100.00
53889;BME280;41337;51.400;-2.342;2022-07-22T16:07:45;101316.16;;;21.09;100.00
53889;BME280;41337;51.400;-2.342;2022-07-22T16:12:46;101298.91;;;20.98;100.00
53889;BME280;41337;51.400;-2.342;2022-07-22T16:17:47;101309.66;;;20.93;100.00
53889;BME280;41337;51.400;-2.342;2022-07-22T16:22:49;101311.25;;;20.97;100.00
53889;BME280;41337;51.400;-2.342;2022-07-22T16:27:55;101307.19;;;20.87;100.00
53889;BME280;41337;51.400;-2.342;2022-07-22T16:32:56;101299.34;;;20.84;100.00
53889;BME280;41337;51.400;-2.342;2022-07-22T16:37:57;101310.78;;;20.86;100.00
53889;BME280;41337;51.400;-2.342;2022-07-22T16:42:58;101315.66;;;20.71;100.00
53889;BME280;41337;51.400;-2.342;2022-07-22T16:47:59;101328.28;;;20.62;100.00
53889;BME280;41337;51.400;-2.342;2022-07-22T16:53:04;101336.09;;;20.36;100.00
53889;BME280;41337;51.400;-2.342;2022-07-22T16:58:04;101324.28;;;20.18;100.00
53889;BME280;41337;51.400;-2.342;2022-07-22T17:03:05;101325.44;;;20.10;100.00
53889;BME280;41337;51.400;-2.342;2022-07-22T17:08:06;101315.03;;;20.04;100.00
53889;BME280;41337;51.400;-2.342;2022-07-22T17:13:07;101285.38;;;19.92;100.00
53889;BME280;41337;51.400;-2.342;2022-07-22T17:18:08;101300.16;;;19.99;100.00
53889;BME280;41337;51.400;-2.342;2022-07-22T17:23:09;101294.16;;;19.94;100.00
53889;BME280;41337;51.400;-2.342;2022-07-22T17:28:13;101268.47;;;19.98;100.00
53889;BME280;41337;51.400;-2.342;2022-07-22T17:33:14;101288.94;;;19.91;100.00
53889;BME280;41337;51.400;-2.342;2022-07-22T17:38:15;101286.13;;;19.65;100.00
53889;BME280;41337;51.400;-2.342;2022-07-22T17:43:15;101274.94;;;19.55;100.00
53889;BME280;41337;51.400;-2.342;2022-07-22T17:48:17;101257.78;;;19.38;100.00
53889;BME280;41337;51.400;-2.342;2022-07-22T17:53:18;101246.13;;;19.47;100.00
53889;BME280;41337;51.400;-2.342;2022-07-22T17:58:18;101247.41;;;19.63;100.00
53889;BME280;41337;51.400;-2.342;2022-07-22T18:03:19;101277.56;;;19.56;100.00
53889;BME280;41337;51.400;-2.342;2022-07-22T18:08:21;101281.00;;;19.60;100.00
53889;BME280;41337;51.400;-2.342;2022-07-22T18:13:25;101258.16;;;19.57;100.00
53889;BME280;41337;51.400;-2.342;2022-07-22T18:18:26;101252.50;;;19.70;100.00
53889;BME280;41337;51.400;-2.342;2022-07-22T18:23:27;101242.63;;;19.78;100.00
53889;BME280;41337;51.400;-2.342;2022-07-22T18:28:28;101244.97;;;19.87;100.00
53889;BME280;41337;51.400;-2.342;2022-07-22T18:33:29;101258.25;;;19.86;100.00
53889;BME280;41337;51.400;-2.342;2022-07-22T18:38:30;101260.94;;;19.84;100.00
53889;BME280;41337;51.400;-2.342;2022-07-22T18:43:30;101270.81;;;19.77;100.00
53889;BME280;41337;51.400;-2.342;2022-07-22T18:48:31;101290.56;;;19.64;100.00
53889;BME280;41337;51.400;-2.342;2022-07-22T18:53:32;101302.75;;;19.37;100.00
53889;BME280;41337;51.400;-2.342;2022-07-22T18:58:33;101281.50;;;19.41;100.00
53889;BME280;41337;51.400;-2.342;2022-07-22T19:03:35;101300.69;;;19.48;100.00
53889;BME280;41337;51.400;-2.342;2022-07-22T19:08:39;101293.63;;;19.49;100.00
53889;BME280;41337;51.400;-2.342;2022-07-22T19:13:40;101294.16;;;19.61;100.00
53889;BME280;41337;51.400;-2.342;2022-07-22T19:18:41;101304.63;;;19.65;100.00
53889;BME280;41337;51.400;-2.342;2022-07-22T19:23:42;101300.28;;;19.63;100.00
53889;BME280;41337;51.400;-2.342;2022-07-22T19:28:46;101292.31;;;19.65;100.00
53889;BME280;41337;51.400;-2.342;2022-07-22T19:34:12;101310.06;;;19.60;100.00
53889;BME280;41337;51.400;-2.342;2022-07-22T19:39:13;101332.22;;;19.54;100.00
53889;BME280;41337;51.400;-2.342;2022-07-22T19:44:14;101317.81;;;19.33;100.00
53889;BME280;41337;51.400;-2.342;2022-07-22T19:49:16;101324.44;;;19.15;100.00
53889;BME280;41337;51.400;-2.342;2022-07-22T19:54:23;101342.25;;;19.07;100.00
53889;BME280;41337;51.400;-2.342;2022-07-22T19:59:23;101393.84;;;18.84;100.00
53889;BME280;41337;51.400;-2.342;2022-07-22T20:04:24;101387.69;;;18.42;100.00
53889;BME280;41337;51.400;-2.342;2022-07-22T20:09:25;101415.63;;;18.10;100.00
53889;BME280;41337;51.400;-2.342;2022-07-22T20:14:26;101403.06;;;17.74;100.00
53889;BME280;41337;51.400;-2.342;2022-07-22T20:19:27;101390.53;;;17.36;100.00
53889;BME280;41337;51.400;-2.342;2022-07-22T20:24:41;101388.22;;;17.16;100.00
53889;BME280;41337;51.400;-2.342;2022-07-22T20:29:42;101388.50;;;17.00;100.00
53889;BME280;41337;51.400;-2.342;2022-07-22T20:34:43;101390.53;;;16.77;100.00
53889;BME280;41337;51.400;-2.342;2022-07-22T20:39:44;101381.13;;;16.59;100.00
53889;BME280;41337;51.400;-2.342;2022-07-22T20:44:44;101366.44;;;16.44;100.00
53889;BME280;41337;51.400;-2.342;2022-07-22T20:49:45;101369.25;;;16.30;100.00
53889;BME280;41337;51.400;-2.342;2022-07-22T20:54:46;101365.91;;;16.19;100.00
53889;BME280;41337;51.400;-2.342;2022-07-22T20:59:47;101357.25;;;16.07;100.00
53889;BME280;41337;51.400;-2.342;2022-07-22T21:04:48;101364.25;;;16.07;100.00
53889;BME280;41337;51.400;-2.342;2022-07-22T21:09:48;101375.81;;;15.93;100.00
53889;BME280;41337;51.400;-2.342;2022-07-22T21:14:49;101369.88;;;15.77;100.00
53889;BME280;41337;51.400;-2.342;2022-07-22T21:19:50;101366.38;;;15.71;100.00
53889;BME280;41337;51.400;-2.342;2022-07-22T21:24:51;101354.16;;;15.67;100.00
53889;BME280;41337;51.400;-2.342;2022-07-22T21:29:52;101366.47;;;15.63;100.00
53889;BME280;41337;51.400;-2.342;2022-07-22T21:34:53;101363.03;;;15.55;100.00
53889;BME280;41337;51.400;-2.342;2022-07-22T21:39:58;101341.16;;;15.54;100.00
53889;BME280;41337;51.400;-2.342;2022-07-22T21:44:59;101349.94;;;15.50;100.00
53889;BME280;41337;51.400;-2.342;2022-07-22T21:50:01;101326.34;;;15.49;100.00
53889;BME280;41337;51.400;-2.342;2022-07-22T21:55:02;101316.69;;;15.48;100.00
53889;BME280;41337;51.400;-2.342;2022-07-22T22:00:06;101323.75;;;15.44;100.00
53889;BME280;41337;51.400;-2.342;2022-07-22T22:05:11;101345.66;;;15.41;100.00
53889;BME280;41337;51.400;-2.342;2022-07-22T22:10:12;101339.63;;;15.33;100.00
53889;BME280;41337;51.400;-2.342;2022-07-22T22:15:12;101350.97;;;15.34;100.00
53889;BME280;41337;51.400;-2.342;2022-07-22T22:20:13;101332.59;;;15.34;100.00
53889;BME280;41337;51.400;-2.342;2022-07-22T22:25:14;101338.75;;;15.30;100.00
53889;BME280;41337;51.400;-2.342;2022-07-22T22:30:16;101324.78;;;15.28;100.00
53889;BME280;41337;51.400;-2.342;2022-07-22T22:35:23;101327.38;;;15.29;100.00
53889;BME280;41337;51.400;-2.342;2022-07-22T22:40:24;101316.97;;;15.20;100.00
53889;BME280;41337;51.400;-2.342;2022-07-22T22:45:25;101326.63;;;15.16;100.00
53889;BME280;41337;51.400;-2.342;2022-07-22T22:50:32;101325.78;;;15.11;100.00
53889;BME280;41337;51.400;-2.342;2022-07-22T22:55:35;101314.47;;;15.06;100.00
53889;BME280;41337;51.400;-2.342;2022-07-22T23:00:36;101302.22;;;15.07;100.00
53889;BME280;41337;51.400;-2.342;2022-07-22T23:05:38;101298.75;;;15.04;100.00
53889;BME280;41337;51.400;-2.342;2022-07-22T23:10:39;101296.97;;;15.07;100.00
53889;BME280;41337;51.400;-2.342;2022-07-22T23:15:39;101300.53;;;15.01;100.00
53889;BME280;41337;51.400;-2.342;2022-07-22T23:20:44;101312.72;;;15.03;100.00
53889;BME280;41337;51.400;-2.342;2022-07-22T23:25:48;101311.91;;;14.97;100.00
53889;BME280;41337;51.400;-2.342;2022-07-22T23:30:50;101319.88;;;14.88;100.00
53889;BME280;41337;51.400;-2.342;2022-07-22T23:35:51;101327.78;;;14.78;100.00
53889;BME280;41337;51.400;-2.342;2022-07-22T23:40:56;101326.13;;;14.68;100.00
53889;BME280;41337;51.400;-2.342;2022-07-22T23:46:05;101320.91;;;14.65;100.00
53889;BME280;41337;51.400;-2.342;2022-07-22T23:51:06;101316.59;;;14.50;100.00
53889;BME280;41337;51.400;-2.342;2022-07-22T23:56:07;101304.34;;;14.47;100.00
